Skip Navigation Links weather.gov 
NOAA logo-Select to go to the NOAA homepage NDBC Title GraphicClick to go to NDBC home page   Select to go to the NWS homepage
Home About Us Contact Us
 
 
    
    Station List

 Data Access
    Mobile Access
    Classic Maps
         Recent
         DART®
    Obs Search
    Ship Obs Report
    BuoyCAMs
    TAO
    DODS
    OceanSITES
    HF Radar
    OSMC
    Dial-A-Buoy
    RSS Feeds Image indicating link to RSS feed access page
    Web Widget
    Web Data Guide
    Maintenance Schedule
    Station Status Report

 Program Info
    TAO
    DART®
    IOOS®

 Publications
    NDBC PEA
    NDBC FONSI
    NDBC DQC Handbook

 Visitor Information
 
USA.gov is the U.S. government's official web portal to all federal, state and local government web resources and services.

Station MCYI3 - Michigan City Harbor Entrance Light, Michigan City, IN Image indicating link to RSS feed of recent meteorological observations for station MCYI3

Owned and maintained by Great Lakes Environmental Research Laboratory
C-MAN Station
41.729 N 86.912 W (41°43'45" N 86°54'42" W)

Site elevation: 176 m above mean sea level
Air temp height: 18.3 m above site elevation
Anemometer height: 21.3 m above site elevation
Barometer elevation: 193.8 m above mean sea level

Latest NWS Marine Forecast

Search And Rescue (SAR) Data

Meteorological Observations from Nearby Stations and Ships Image indicating link to RSS feed of recent meteorological observations near station MCYI3

Station MCYI3
Large icon indicates selected station.
yellow diamond Stations with recent data
red diamond Stations with no data in last 8 hours
     (24 hours for tsunami stations)


Conditions at MCYI3 as of
(9:50 am CDT)
1450 GMT on 05/22/2019:
     

Click on the graph icon in the table below to see a time series plot of the last five days of that observation.

5-day plot - Wind Direction Wind Direction (WDIR): SSE ( 160 deg true )
5-day plot - Wind Speed Wind Speed (WSPD): 16 kts
5-day plot - Wind Gust Wind Gust (GST): 20 kts
5-day plot - Air Temperature Air Temperature (ATMP): 61.0 °F
5-day plot - Dew Point Dew Point (DEWP): 56.8 °F
5-day plot - Wind Speed, Wind Gust and Atmospheric Pressure Combined plot of Wind Speed, Gust, and Air Pressure
Previous observations
5-day plot - Wind Direction 5-day plot - Wind Speed 5-day plot - Wind Gust 5-day plot - Wave Height 5-day plot - Dominant Wave Period 5-day plot - Average Period 5-day plot - Mean Wave Direction 5-day plot - Atmospheric Pressure 5-day plot - Pressure Tendency 5-day plot - Air Temperature 5-day plot - Water Temperature 5-day plot - Dew Point 5-day plot - Salinity 5-day plot - Visibility 5-day plot - Tide (above MLLW)
MM DD TIME
(CDT)
WDIR WSPD
kts
GST
kts
WVHT
ft
DPD
sec
APD
sec
MWD PRES
in
PTDY
in
ATMP
°F
WTMP
°F
DEWP
°F
SAL
psu
VIS
nmi
TIDE
ft
0522 9:40 amSSE 11 15------ 59.9- 56.5---
0522 9:30 am SE 11 16------ 59.0- 55.9---
0522 9:20 am SE 15 18------ 58.6- 55.6---
0522 9:10 am SE 15 19------ 58.3- 55.4---
0522 9:00 amSSE 13 15------ 57.7- 55.0---
0522 8:50 am SE 15 18------ 57.6- 54.7---
0522 8:40 amSSE 13 15------ 57.4- 54.5---
0522 8:30 am SE 17 21------ 56.8- 54.1---
0522 8:20 am SE 15 18------ 56.5- 53.8---
0522 8:10 am SE 12 15------ 56.3- 53.6---
0522 8:00 am SE 10 12------ 55.8- 53.1---
0522 7:50 amSSE 9 12------ 55.4- 52.7---
0522 7:40 am SE 10 15------ 55.2- 52.5---
0522 7:30 am SE 12 16------ 54.7- 52.3---
0522 7:20 am SE 18 23------ 54.5- 52.0---
0522 7:10 am SE 22 26------ 54.3- 51.8---
0522 7:00 am SE 22 26------ 54.0- 51.4---
0522 6:50 amESE 22 28------ 53.4- 51.1---
0522 6:40 am SE 18 24------ 53.2- 50.9---
0522 6:30 amESE 14 17------ 53.2- 50.5---
0522 6:20 am SE 20 24------ 53.2- 50.5---
0522 6:10 amSSE 21 25------ 53.2- 50.4---
0522 6:00 amESE 21 30------ 52.7- 50.2---
0522 5:50 amESE 24 30------ 53.1- 50.2---
0522 5:40 amESE 31 37------ 52.7- 50.0---
0522 5:30 amESE 25 33------ 52.5- 49.8---
0522 5:20 amESE 25 33------ 52.3- 49.8---
0522 5:10 am E 25 33------ 52.0- 49.6---
0522 5:00 am E 24 28------ 51.8- 49.6---
0522 4:50 amESE 15 18------ 51.8- 49.6---
0522 4:40 amESE 16 19------ 51.8- 49.6---
0522 4:30 am E 15 20------ 51.3- 49.6---
0522 4:20 am E 10 13------ 51.3- 49.6---
0522 4:10 amESE 3 4------ 51.4- 49.6---
0522 4:00 amSSE 4 5------ 51.4- 49.6---
0522 3:50 am S 5 6------ 51.6- 49.3---
0522 3:40 amSSW 4 5------ 51.8- 49.1---
0522 3:30 amSSW 11 12------ 52.2- 48.9---
0522 3:20 amSSW 11 13------ 52.7- 48.2---
0522 3:10 amSSE 6 10------ 52.7- 47.8---
0522 3:00 amSSE 8 11------ 52.7- 47.7---
0522 2:50 am SE 8 10------ 52.9- 47.5---
0522 2:40 am SE 7 9------ 53.1- 47.1---
0522 2:30 am SE 11 13------ 53.1- 46.9---
0522 2:20 amESE 17 26------ 53.4- 46.4---
0522 2:10 am SE 19 23------ 54.9- 45.3---
0522 2:00 am E 29 34------ 55.9- 44.2---
0522 1:50 amESE 20 27------ 56.1- 43.7---
0522 1:40 amESE 28 36------ 56.5- 43.2---
0522 1:30 amESE 25 29------ 56.5- 42.8---
0522 1:20 amESE 30 42------ 56.5- 42.4---
0522 1:10 amESE 21 27------ 56.5- 42.1---
0522 1:00 amESE 23 31------ 56.3- 41.7---
052212:50 am E 19 25------ 56.3- 41.5---
052212:40 am E 22 32------ 56.1- 40.8---
052212:30 am E 24 29------ 56.1- 40.3---
052212:20 amESE 22 32------ 56.1- 40.1---
052212:10 amESE 24 31------ 56.1- 39.6---
052212:00 amESE 27 33------ 56.1- 39.0---
052111:50 pm E 28 37------ 55.9- 38.5---
052111:40 pmESE 26 35------ 55.9- 38.1---
052111:30 pm E 25 32------ 55.9- 37.8---
052111:20 pm E 23 34------ 55.8- 37.4---
052111:10 pmESE 24 32------ 55.6- 37.4---
052111:00 pm E 24 34------ 55.6- 37.2---
052110:50 pm E 24 32------ 55.6- 37.0---
052110:40 pmESE 22 29------ 55.8- 37.0---
052110:30 pmESE 25 32------ 55.6- 37.0---
052110:20 pmESE 28 36------ 55.6- 37.2---
052110:10 pm E 20 24------ 55.4- 37.8---
052110:00 pmESE 23 28------ 55.4- 37.8---
0521 9:50 pm E 19 26------ 55.2- 38.5---
0521 9:40 pm E 23 32------ 55.4- 38.7---
0521 9:30 pm E 27 35------ 55.4- 38.7---
0521 9:20 pm E 23 31------ 55.4- 39.4---
0521 9:10 pm E 23 31------ 55.2- 39.7---
0521 9:00 pm E 21 27------ 55.2- 40.3---
0521 8:50 pm E 29 34------ 55.2- 40.5---
0521 8:40 pm E 23 29------ 55.2- 41.2---
0521 8:30 pm E 22 28------ 55.0- 41.9---
0521 8:20 pm E 20 26------ 55.0- 42.4---
0521 8:10 pm E 21 30------ 54.9- 43.0---
0521 8:00 pm E 14 24------ 54.9- 43.3---
0521 7:50 pm E 20 30------ 54.9- 43.2---
0521 7:40 pm E 15 22------ 54.7- 43.2---
0521 7:30 pm E 14 21------ 54.7- 42.8---
0521 7:20 pm E 20 25------ 54.7- 42.6---
0521 7:10 pm E 18 28------ 54.7- 42.3---
0521 7:00 pm E 15 19------ 54.5- 42.1---
0521 6:50 pm E 13 20------ 54.5- 42.1---
0521 6:40 pm E 18 25------ 54.5- 41.4---
0521 6:30 pm E 19 24------ 54.5- 41.2---
0521 6:20 pm E 17 23------ 54.3- 41.2---
0521 6:10 pmENE 18 24------ 54.3- 41.0---
0521 6:00 pm E 18 28------ 54.1- 40.8---
0521 5:50 pm E 19 22------ 54.1- 40.5---
0521 5:40 pm E 19 24------ 54.1- 40.1---
0521 5:30 pm E 18 22------ 54.0- 39.9---
0521 5:20 pm E 19 29------ 54.0- 39.6---
0521 5:10 pm E 19 25------ 53.8- 39.7---
0521 5:00 pm E 17 22------ 53.6- 39.4---
0521 4:50 pm E 19 23------ 53.6- 39.4---
0521 4:40 pm E 20 25------ 53.4- 39.0---
0521 4:30 pm E 20 31------ 53.4- 39.2---
0521 4:20 pm E 18 23------ 53.2- 39.2---
0521 4:10 pm E 24 31------ 52.9- 39.2---
0521 4:00 pm E 19 26------ 52.7- 39.4---
0521 3:50 pm E 22 28------ 52.5- 39.9---
0521 3:40 pmENE 23 27------ 52.5- 40.5---
0521 3:30 pmENE 18 24------ 52.2- 40.1---
0521 3:20 pm E 19 23------ 52.0- 39.9---
0521 3:10 pm E 15 20------ 52.0- 40.5---
0521 3:00 pm E 15 20------ 51.8- 40.3---
0521 2:50 pm E 19 25------ 51.6- 40.1---
0521 2:40 pm E 16 19------ 51.6- 40.5---
0521 2:30 pm E 16 21------ 51.4- 41.2---
0521 2:20 pm E 20 26------ 51.3- 40.8---
0521 2:10 pmENE 21 28------ 51.1- 40.8---
0521 2:00 pmENE 20 25------ 50.9- 41.4---
0521 1:50 pmENE 17 24------ 50.7- 41.4---
0521 1:40 pm E 15 19------ 50.7- 42.3---
0521 1:30 pm E 14 16------ 50.5- 42.1---
0521 1:20 pm E 14 18------ 50.5- 42.1---
0521 1:10 pm E 14 19------ 50.4- 42.6---
0521 1:00 pm E 12 14------ 50.2- 43.2---
052112:50 pmENE 18 22------ 50.0- 42.6---
052112:40 pm E 15 18------ 50.2- 43.2---
052112:30 pmENE 15 18------ 50.0- 43.7---
052112:20 pm E 13 16------ 50.0- 43.3---
052112:10 pm E 13 17------ 49.8- 43.2---
052112:00 pm E 11 13------ 49.6- 43.7---
052111:50 am E 11 16------ 49.6- 43.9---
052111:40 am E 14 18------ 49.5- 43.9---
052111:30 am E 11 15------ 49.3- 43.9---
052111:20 amENE 10 12------ 49.3- 43.7---
052111:10 am E 10 13------ 49.3- 44.1---
052111:00 amENE 10 14------ 49.3- 44.2---
052110:50 am E 8 11------ 49.3- 43.9---
052110:40 am E 8 14------ 49.3- 44.2---
052110:30 amENE 11 13------ 49.1- 43.9---
052110:20 am E 9 12------ 48.7- 43.7---
052110:10 am E 9 11------ 48.7- 44.1---
052110:00 am E 5 9------ 48.4- 43.5---
0521 9:50 am E 9 12------ 48.2- 43.5---

Description of Measurements

Links which are specific to this station are listed below:

Real Time Data in tabular form for the last forty-five days.

Historical Data & Climatic Summaries for quality controlled data for the current month, previous months, and previous years.